sensor_id;sensor_type;location;lat;lon;timestamp;temperature;humidity
54960;DHT22;40860;51.710;8.736;2023-07-29T00:02:44;19.10;99.90
54960;DHT22;40860;51.710;8.736;2023-07-29T00:06:47;19.10;99.90
54960;DHT22;40860;51.710;8.736;2023-07-29T00:10:50;19.10;99.90
54960;DHT22;40860;51.710;8.736;2023-07-29T00:14:53;19.20;99.90
54960;DHT22;40860;51.710;8.736;2023-07-29T00:18:57;19.20;99.90
54960;DHT22;40860;51.710;8.736;2023-07-29T00:23:00;19.20;99.90
54960;DHT22;40860;51.710;8.736;2023-07-29T00:27:04;19.30;99.90
54960;DHT22;40860;51.710;8.736;2023-07-29T00:31:07;19.30;99.90
54960;DHT22;40860;51.710;8.736;2023-07-29T00:35:12;19.40;99.90
54960;DHT22;40860;51.710;8.736;2023-07-29T00:39:15;19.40;99.90
54960;DHT22;40860;51.710;8.736;2023-07-29T00:43:18;19.30;99.90
54960;DHT22;40860;51.710;8.736;2023-07-29T00:47:21;19.30;99.90
54960;DHT22;40860;51.710;8.736;2023-07-29T00:51:26;19.30;99.90
54960;DHT22;40860;51.710;8.736;2023-07-29T00:55:31;19.30;99.90
54960;DHT22;40860;51.710;8.736;2023-07-29T00:59:35;19.30;99.90
54960;DHT22;40860;51.710;8.736;2023-07-29T01:03:38;19.30;99.90
54960;DHT22;40860;51.710;8.736;2023-07-29T01:07:47;19.30;99.90
54960;DHT22;40860;51.710;8.736;2023-07-29T01:11:55;19.30;99.90
54960;DHT22;40860;51.710;8.736;2023-07-29T01:16:04;19.40;99.90
54960;DHT22;40860;51.710;8.736;2023-07-29T01:20:14;19.40;99.90
54960;DHT22;40860;51.710;8.736;2023-07-29T01:24:21;19.40;99.90
54960;DHT22;40860;51.710;8.736;2023-07-29T01:28:24;19.40;99.90
54960;DHT22;40860;51.710;8.736;2023-07-29T01:32:32;19.30;99.90
54960;DHT22;40860;51.710;8.736;2023-07-29T01:36:39;19.30;99.90
54960;DHT22;40860;51.710;8.736;2023-07-29T01:40:50;19.40;99.90
54960;DHT22;40860;51.710;8.736;2023-07-29T01:44:54;19.30;99.90
54960;DHT22;40860;51.710;8.736;2023-07-29T01:48:57;19.30;99.90
54960;DHT22;40860;51.710;8.736;2023-07-29T01:53:00;19.30;99.90
54960;DHT22;40860;51.710;8.736;2023-07-29T01:57:04;19.30;99.90
54960;DHT22;40860;51.710;8.736;2023-07-29T02:01:07;19.30;99.90
54960;DHT22;40860;51.710;8.736;2023-07-29T02:05:10;19.30;99.90
54960;DHT22;40860;51.710;8.736;2023-07-29T02:09:13;19.30;99.90
54960;DHT22;40860;51.710;8.736;2023-07-29T02:13:24;19.30;99.90
54960;DHT22;40860;51.710;8.736;2023-07-29T02:17:31;19.30;99.90
54960;DHT22;40860;51.710;8.736;2023-07-29T02:21:36;19.30;99.90
54960;DHT22;40860;51.710;8.736;2023-07-29T02:25:44;19.40;99.90
54960;DHT22;40860;51.710;8.736;2023-07-29T02:29:48;19.40;99.90
54960;DHT22;40860;51.710;8.736;2023-07-29T02:33:51;19.30;99.90
54960;DHT22;40860;51.710;8.736;2023-07-29T02:37:55;19.30;99.90
54960;DHT22;40860;51.710;8.736;2023-07-29T02:41:57;19.30;99.90
54960;DHT22;40860;51.710;8.736;2023-07-29T02:46:02;19.30;99.90
54960;DHT22;40860;51.710;8.736;2023-07-29T02:50:08;19.30;99.90
54960;DHT22;40860;51.710;8.736;2023-07-29T02:54:11;19.30;99.90
54960;DHT22;40860;51.710;8.736;2023-07-29T02:58:15;19.30;99.90
54960;DHT22;40860;51.710;8.736;2023-07-29T03:02:19;19.20;99.90
54960;DHT22;40860;51.710;8.736;2023-07-29T03:06:22;19.20;99.90
54960;DHT22;40860;51.710;8.736;2023-07-29T03:10:25;19.20;99.90
54960;DHT22;40860;51.710;8.736;2023-07-29T03:14:28;19.20;99.90
54960;DHT22;40860;51.710;8.736;2023-07-29T03:18:32;19.20;99.90
54960;DHT22;40860;51.710;8.736;2023-07-29T03:22:35;19.20;99.90
54960;DHT22;40860;51.710;8.736;2023-07-29T03:26:38;19.20;99.90
54960;DHT22;40860;51.710;8.736;2023-07-29T03:30:43;19.20;99.90
54960;DHT22;40860;51.710;8.736;2023-07-29T03:34:47;19.10;99.90
54960;DHT22;40860;51.710;8.736;2023-07-29T03:38:50;19.10;99.90
54960;DHT22;40860;51.710;8.736;2023-07-29T03:42:54;19.10;99.90
54960;DHT22;40860;51.710;8.736;2023-07-29T03:46:57;19.10;99.90
54960;DHT22;40860;51.710;8.736;2023-07-29T03:51:01;19.10;99.90
54960;DHT22;40860;51.710;8.736;2023-07-29T03:55:05;19.10;99.90
54960;DHT22;40860;51.710;8.736;2023-07-29T03:59:07;19.10;99.90
54960;DHT22;40860;51.710;8.736;2023-07-29T04:03:10;19.10;99.90
54960;DHT22;40860;51.710;8.736;2023-07-29T04:07:15;19.00;99.90
54960;DHT22;40860;51.710;8.736;2023-07-29T04:11:18;19.00;99.90
54960;DHT22;40860;51.710;8.736;2023-07-29T04:15:21;19.00;99.90
54960;DHT22;40860;51.710;8.736;2023-07-29T04:19:24;19.00;99.90
54960;DHT22;40860;51.710;8.736;2023-07-29T04:23:28;18.90;99.90
54960;DHT22;40860;51.710;8.736;2023-07-29T04:27:31;18.90;99.90
54960;DHT22;40860;51.710;8.736;2023-07-29T04:31:34;18.90;99.90
54960;DHT22;40860;51.710;8.736;2023-07-29T04:35:38;18.90;99.90
54960;DHT22;40860;51.710;8.736;2023-07-29T04:39:42;18.80;99.90
54960;DHT22;40860;51.710;8.736;2023-07-29T04:43:45;18.80;99.90
54960;DHT22;40860;51.710;8.736;2023-07-29T04:47:48;18.80;99.90
54960;DHT22;40860;51.710;8.736;2023-07-29T04:51:51;18.80;99.90
54960;DHT22;40860;51.710;8.736;2023-07-29T04:55:55;18.80;99.90
54960;DHT22;40860;51.710;8.736;2023-07-29T04:59:58;18.80;99.90
54960;DHT22;40860;51.710;8.736;2023-07-29T05:04:02;18.80;99.90
54960;DHT22;40860;51.710;8.736;2023-07-29T05:08:05;18.80;99.90
54960;DHT22;40860;51.710;8.736;2023-07-29T05:12:09;18.90;99.90
54960;DHT22;40860;51.710;8.736;2023-07-29T05:16:12;18.90;99.90
54960;DHT22;40860;51.710;8.736;2023-07-29T05:20:15;18.90;99.90
54960;DHT22;40860;51.710;8.736;2023-07-29T05:24:18;18.90;99.90
54960;DHT22;40860;51.710;8.736;2023-07-29T05:28:22;18.90;99.90
54960;DHT22;40860;51.710;8.736;2023-07-29T05:32:25;19.00;99.90
54960;DHT22;40860;51.710;8.736;2023-07-29T05:36:28;19.00;99.90
54960;DHT22;40860;51.710;8.736;2023-07-29T05:40:32;19.10;99.90
54960;DHT22;40860;51.710;8.736;2023-07-29T05:44:36;19.10;99.90
54960;DHT22;40860;51.710;8.736;2023-07-29T05:48:40;19.20;99.90
54960;DHT22;40860;51.710;8.736;2023-07-29T05:52:43;19.20;99.90
54960;DHT22;40860;51.710;8.736;2023-07-29T05:56:46;19.30;99.90
54960;DHT22;40860;51.710;8.736;2023-07-29T06:00:50;19.30;99.90
54960;DHT22;40860;51.710;8.736;2023-07-29T06:04:54;19.30;99.90
54960;DHT22;40860;51.710;8.736;2023-07-29T06:08:57;19.30;99.90
54960;DHT22;40860;51.710;8.736;2023-07-29T06:13:00;19.30;99.90
54960;DHT22;40860;51.710;8.736;2023-07-29T06:17:05;19.30;99.90
54960;DHT22;40860;51.710;8.736;2023-07-29T06:21:09;19.30;99.90
54960;DHT22;40860;51.710;8.736;2023-07-29T06:25:14;19.30;99.90
54960;DHT22;40860;51.710;8.736;2023-07-29T06:29:17;19.30;99.90
54960;DHT22;40860;51.710;8.736;2023-07-29T06:33:21;19.30;99.90
54960;DHT22;40860;51.710;8.736;2023-07-29T06:37:24;19.30;99.90
54960;DHT22;40860;51.710;8.736;2023-07-29T06:41:27;19.40;99.90
54960;DHT22;40860;51.710;8.736;2023-07-29T06:45:30;19.50;99.90
54960;DHT22;40860;51.710;8.736;2023-07-29T06:49:34;19.60;99.90
54960;DHT22;40860;51.710;8.736;2023-07-29T06:53:37;19.60;99.90
54960;DHT22;40860;51.710;8.736;2023-07-29T06:57:40;19.60;99.90
54960;DHT22;40860;51.710;8.736;2023-07-29T07:01:43;19.60;99.90
54960;DHT22;40860;51.710;8.736;2023-07-29T07:05:47;19.70;99.90
54960;DHT22;40860;51.710;8.736;2023-07-29T07:09:50;19.60;99.90
54960;DHT22;40860;51.710;8.736;2023-07-29T07:13:54;19.60;99.90
54960;DHT22;40860;51.710;8.736;2023-07-29T07:17:57;19.70;99.90
54960;DHT22;40860;51.710;8.736;2023-07-29T07:22:01;19.70;99.90
54960;DHT22;40860;51.710;8.736;2023-07-29T07:26:04;19.70;99.90
54960;DHT22;40860;51.710;8.736;2023-07-29T07:30:08;19.70;99.90
54960;DHT22;40860;51.710;8.736;2023-07-29T07:34:11;19.70;99.90
54960;DHT22;40860;51.710;8.736;2023-07-29T07:38:15;19.80;99.90
54960;DHT22;40860;51.710;8.736;2023-07-29T07:42:18;19.80;99.90
54960;DHT22;40860;51.710;8.736;2023-07-29T07:46:21;19.90;99.90
54960;DHT22;40860;51.710;8.736;2023-07-29T07:50:24;20.10;99.90
54960;DHT22;40860;51.710;8.736;2023-07-29T07:54:28;20.20;99.90
54960;DHT22;40860;51.710;8.736;2023-07-29T07:58:31;20.10;99.90
54960;DHT22;40860;51.710;8.736;2023-07-29T08:02:34;20.10;99.90
54960;DHT22;40860;51.710;8.736;2023-07-29T08:06:37;20.10;99.90
54960;DHT22;40860;51.710;8.736;2023-07-29T08:10:42;20.00;99.90
54960;DHT22;40860;51.710;8.736;2023-07-29T08:14:45;19.90;99.90
54960;DHT22;40860;51.710;8.736;2023-07-29T08:18:48;19.80;99.90
54960;DHT22;40860;51.710;8.736;2023-07-29T08:22:51;19.70;99.90
54960;DHT22;40860;51.710;8.736;2023-07-29T08:26:55;19.80;99.90
54960;DHT22;40860;51.710;8.736;2023-07-29T08:30:58;19.80;99.90
54960;DHT22;40860;51.710;8.736;2023-07-29T08:35:01;19.80;99.90
54960;DHT22;40860;51.710;8.736;2023-07-29T08:39:04;19.80;99.90
54960;DHT22;40860;51.710;8.736;2023-07-29T08:43:09;19.80;99.90
54960;DHT22;40860;51.710;8.736;2023-07-29T08:47:13;19.80;99.90
54960;DHT22;40860;51.710;8.736;2023-07-29T08:51:17;19.90;99.90
54960;DHT22;40860;51.710;8.736;2023-07-29T08:55:21;19.90;99.90
54960;DHT22;40860;51.710;8.736;2023-07-29T08:59:26;20.00;99.90
54960;DHT22;40860;51.710;8.736;2023-07-29T09:03:30;19.90;99.90
54960;DHT22;40860;51.710;8.736;2023-07-29T09:07:34;20.00;99.90
54960;DHT22;40860;51.710;8.736;2023-07-29T09:11:39;20.30;99.90
54960;DHT22;40860;51.710;8.736;2023-07-29T09:15:45;20.50;99.90
54960;DHT22;40860;51.710;8.736;2023-07-29T09:19:48;20.50;99.90
54960;DHT22;40860;51.710;8.736;2023-07-29T09:23:51;20.60;99.40
54960;DHT22;40860;51.710;8.736;2023-07-29T09:27:58;21.00;98.50
54960;DHT22;40860;51.710;8.736;2023-07-29T09:32:18;21.20;98.00
54960;DHT22;40860;51.710;8.736;2023-07-29T09:36:22;21.10;97.10
54960;DHT22;40860;51.710;8.736;2023-07-29T09:40:26;20.90;96.30
54960;DHT22;40860;51.710;8.736;2023-07-29T09:44:35;20.90;96.70
54960;DHT22;40860;51.710;8.736;2023-07-29T09:48:40;21.30;97.10
54960;DHT22;40860;51.710;8.736;2023-07-29T09:52:45;21.80;94.90
54960;DHT22;40860;51.710;8.736;2023-07-29T09:56:50;22.20;93.20
54960;DHT22;40860;51.710;8.736;2023-07-29T10:00:54;22.50;93.20
54960;DHT22;40860;51.710;8.736;2023-07-29T10:04:59;22.80;92.70
54960;DHT22;40860;51.710;8.736;2023-07-29T10:09:02;22.50;91.20
54960;DHT22;40860;51.710;8.736;2023-07-29T10:13:05;22.40;91.80
54960;DHT22;40860;51.710;8.736;2023-07-29T10:17:12;22.60;91.10
54960;DHT22;40860;51.710;8.736;2023-07-29T10:21:17;22.90;87.70
54960;DHT22;40860;51.710;8.736;2023-07-29T10:25:24;23.20;86.30
54960;DHT22;40860;51.710;8.736;2023-07-29T10:29:31;23.30;85.60
54960;DHT22;40860;51.710;8.736;2023-07-29T10:33:36;23.50;83.60
54960;DHT22;40860;51.710;8.736;2023-07-29T10:37:42;23.60;82.10
54960;DHT22;40860;51.710;8.736;2023-07-29T10:41:57;23.60;81.40
54960;DHT22;40860;51.710;8.736;2023-07-29T10:46:15;23.60;79.40
54960;DHT22;40860;51.710;8.736;2023-07-29T10:50:20;23.50;78.90
54960;DHT22;40860;51.710;8.736;2023-07-29T10:54:25;23.60;78.00
54960;DHT22;40860;51.710;8.736;2023-07-29T10:58:29;23.60;77.80
54960;DHT22;40860;51.710;8.736;2023-07-29T11:02:35;23.80;75.80
54960;DHT22;40860;51.710;8.736;2023-07-29T11:07:01;24.00;75.00
54960;DHT22;40860;51.710;8.736;2023-07-29T11:11:12;23.90;74.30
54960;DHT22;40860;51.710;8.736;2023-07-29T11:15:20;23.80;74.70
54960;DHT22;40860;51.710;8.736;2023-07-29T11:19:29;24.10;75.80
54960;DHT22;40860;51.710;8.736;2023-07-29T11:23:33;24.40;74.90
54960;DHT22;40860;51.710;8.736;2023-07-29T11:27:38;24.30;74.40
54960;DHT22;40860;51.710;8.736;2023-07-29T11:31:41;24.30;73.80
54960;DHT22;40860;51.710;8.736;2023-07-29T11:35:44;24.20;73.90
54960;DHT22;40860;51.710;8.736;2023-07-29T11:39:47;24.50;74.90
54960;DHT22;40860;51.710;8.736;2023-07-29T11:43:51;24.80;73.00
54960;DHT22;40860;51.710;8.736;2023-07-29T11:47:54;24.80;72.10
54960;DHT22;40860;51.710;8.736;2023-07-29T11:51:57;25.00;73.00
54960;DHT22;40860;51.710;8.736;2023-07-29T11:56:00;25.30;73.70
54960;DHT22;40860;51.710;8.736;2023-07-29T12:00:06;25.30;70.00
54960;DHT22;40860;51.710;8.736;2023-07-29T12:04:12;25.30;71.50
54960;DHT22;40860;51.710;8.736;2023-07-29T12:08:15;25.40;70.40
54960;DHT22;40860;51.710;8.736;2023-07-29T12:12:18;25.30;68.70
54960;DHT22;40860;51.710;8.736;2023-07-29T12:16:22;25.50;70.10
54960;DHT22;40860;51.710;8.736;2023-07-29T12:20:26;25.60;68.60
54960;DHT22;40860;51.710;8.736;2023-07-29T12:24:30;25.40;70.90
54960;DHT22;40860;51.710;8.736;2023-07-29T12:28:33;25.20;70.10
54960;DHT22;40860;51.710;8.736;2023-07-29T12:32:44;25.00;70.20
54960;DHT22;40860;51.710;8.736;2023-07-29T12:36:49;25.00;71.10
54960;DHT22;40860;51.710;8.736;2023-07-29T12:40:52;25.20;71.40
54960;DHT22;40860;51.710;8.736;2023-07-29T12:44:55;25.10;71.10
54960;DHT22;40860;51.710;8.736;2023-07-29T12:48:59;24.90;71.00
54960;DHT22;40860;51.710;8.736;2023-07-29T12:53:04;24.70;70.50
54960;DHT22;40860;51.710;8.736;2023-07-29T12:57:07;24.60;70.70
54960;DHT22;40860;51.710;8.736;2023-07-29T13:01:09;24.40;70.80
54960;DHT22;40860;51.710;8.736;2023-07-29T13:05:16;24.30;73.10
54960;DHT22;40860;51.710;8.736;2023-07-29T13:09:19;24.20;75.00
54960;DHT22;40860;51.710;8.736;2023-07-29T13:13:22;24.10;74.80
54960;DHT22;40860;51.710;8.736;2023-07-29T13:17:25;23.90;76.10
54960;DHT22;40860;51.710;8.736;2023-07-29T13:21:30;23.90;75.70
54960;DHT22;40860;51.710;8.736;2023-07-29T13:25:32;23.90;76.40
54960;DHT22;40860;51.710;8.736;2023-07-29T13:29:35;24.00;74.90
54960;DHT22;40860;51.710;8.736;2023-07-29T13:33:38;24.00;74.40
54960;DHT22;40860;51.710;8.736;2023-07-29T13:37:43;24.10;73.90
54960;DHT22;40860;51.710;8.736;2023-07-29T13:41:45;24.10;73.00
54960;DHT22;40860;51.710;8.736;2023-07-29T13:45:48;24.50;73.70
54960;DHT22;40860;51.710;8.736;2023-07-29T13:49:52;25.10;73.90
54960;DHT22;40860;51.710;8.736;2023-07-29T13:53:56;25.60;71.40
54960;DHT22;40860;51.710;8.736;2023-07-29T13:57:59;25.60;69.70
54960;DHT22;40860;51.710;8.736;2023-07-29T14:02:02;25.90;66.70
54960;DHT22;40860;51.710;8.736;2023-07-29T14:06:05;26.10;67.40
54960;DHT22;40860;51.710;8.736;2023-07-29T14:10:09;26.20;67.00
54960;DHT22;40860;51.710;8.736;2023-07-29T14:14:12;26.20;66.50
54960;DHT22;40860;51.710;8.736;2023-07-29T14:18:15;26.00;63.90
54960;DHT22;40860;51.710;8.736;2023-07-29T14:22:18;26.10;65.20
54960;DHT22;40860;51.710;8.736;2023-07-29T14:26:22;26.40;64.70
54960;DHT22;40860;51.710;8.736;2023-07-29T14:30:25;26.40;66.10
54960;DHT22;40860;51.710;8.736;2023-07-29T14:34:28;26.40;64.00
54960;DHT22;40860;51.710;8.736;2023-07-29T14:38:31;26.20;65.20
54960;DHT22;40860;51.710;8.736;2023-07-29T14:42:35;26.10;66.30
54960;DHT22;40860;51.710;8.736;2023-07-29T14:46:41;26.00;65.50
54960;DHT22;40860;51.710;8.736;2023-07-29T14:50:44;25.80;65.60
54960;DHT22;40860;51.710;8.736;2023-07-29T14:54:47;25.70;65.80
54960;DHT22;40860;51.710;8.736;2023-07-29T14:58:51;25.60;66.30
54960;DHT22;40860;51.710;8.736;2023-07-29T15:02:55;25.30;66.60
54960;DHT22;40860;51.710;8.736;2023-07-29T15:06:58;25.00;68.50
54960;DHT22;40860;51.710;8.736;2023-07-29T15:11:02;24.80;70.00
54960;DHT22;40860;51.710;8.736;2023-07-29T15:15:08;24.70;69.90
54960;DHT22;40860;51.710;8.736;2023-07-29T15:19:11;24.40;69.60
54960;DHT22;40860;51.710;8.736;2023-07-29T15:23:19;24.40;70.80
54960;DHT22;40860;51.710;8.736;2023-07-29T15:27:22;24.30;70.80
54960;DHT22;40860;51.710;8.736;2023-07-29T15:31:26;24.10;71.30
54960;DHT22;40860;51.710;8.736;2023-07-29T15:43:35;23.70;85.10
54960;DHT22;40860;51.710;8.736;2023-07-29T15:47:40;23.60;96.10
54960;DHT22;40860;51.710;8.736;2023-07-29T15:51:43;23.40;95.30
54960;DHT22;40860;51.710;8.736;2023-07-29T15:55:46;22.60;81.60
54960;DHT22;40860;51.710;8.736;2023-07-29T16:00:04;22.40;83.50
54960;DHT22;40860;51.710;8.736;2023-07-29T16:04:21;21.60;90.10
54960;DHT22;40860;51.710;8.736;2023-07-29T16:08:24;21.00;92.00
54960;DHT22;40860;51.710;8.736;2023-07-29T16:12:27;20.60;92.80
54960;DHT22;40860;51.710;8.736;2023-07-29T16:16:30;20.20;94.20
54960;DHT22;40860;51.710;8.736;2023-07-29T16:20:34;19.80;95.40
54960;DHT22;40860;51.710;8.736;2023-07-29T16:24:37;19.50;96.00
54960;DHT22;40860;51.710;8.736;2023-07-29T16:28:40;19.20;97.80
54960;DHT22;40860;51.710;8.736;2023-07-29T16:32:45;19.00;98.40
54960;DHT22;40860;51.710;8.736;2023-07-29T16:36:49;19.00;98.80
54960;DHT22;40860;51.710;8.736;2023-07-29T16:40:52;19.00;99.40
54960;DHT22;40860;51.710;8.736;2023-07-29T16:45:11;19.20;99.90
54960;DHT22;40860;51.710;8.736;2023-07-29T16:49:14;19.50;99.90
54960;DHT22;40860;51.710;8.736;2023-07-29T16:53:25;19.70;99.30
54960;DHT22;40860;51.710;8.736;2023-07-29T16:57:28;19.70;99.30
54960;DHT22;40860;51.710;8.736;2023-07-29T17:01:30;20.00;99.40
54960;DHT22;40860;51.710;8.736;2023-07-29T17:05:34;20.40;98.20
54960;DHT22;40860;51.710;8.736;2023-07-29T17:09:38;20.30;98.40
54960;DHT22;40860;51.710;8.736;2023-07-29T17:13:41;20.20;98.70
54960;DHT22;40860;51.710;8.736;2023-07-29T17:17:45;20.00;99.00
54960;DHT22;40860;51.710;8.736;2023-07-29T17:21:48;20.10;99.50
54960;DHT22;40860;51.710;8.736;2023-07-29T17:25:52;19.80;99.70
54960;DHT22;40860;51.710;8.736;2023-07-29T17:29:55;19.80;99.90
54960;DHT22;40860;51.710;8.736;2023-07-29T17:33:58;19.70;99.80
54960;DHT22;40860;51.710;8.736;2023-07-29T17:38:02;19.60;99.80
54960;DHT22;40860;51.710;8.736;2023-07-29T17:42:15;19.50;99.90
54960;DHT22;40860;51.710;8.736;2023-07-29T17:46:18;19.50;99.90
54960;DHT22;40860;51.710;8.736;2023-07-29T17:50:21;19.40;99.90
54960;DHT22;40860;51.710;8.736;2023-07-29T17:54:24;19.40;99.90
54960;DHT22;40860;51.710;8.736;2023-07-29T17:58:28;19.50;99.80
54960;DHT22;40860;51.710;8.736;2023-07-29T18:02:32;19.40;99.90
54960;DHT22;40860;51.710;8.736;2023-07-29T18:06:35;19.40;99.90
54960;DHT22;40860;51.710;8.736;2023-07-29T18:10:39;19.30;99.90
54960;DHT22;40860;51.710;8.736;2023-07-29T18:14:44;19.20;99.90
54960;DHT22;40860;51.710;8.736;2023-07-29T18:18:47;19.20;99.90
54960;DHT22;40860;51.710;8.736;2023-07-29T18:22:50;19.00;99.90
54960;DHT22;40860;51.710;8.736;2023-07-29T18:26:54;19.00;99.90
54960;DHT22;40860;51.710;8.736;2023-07-29T18:30:59;19.00;99.90
54960;DHT22;40860;51.710;8.736;2023-07-29T18:35:02;18.80;99.90
54960;DHT22;40860;51.710;8.736;2023-07-29T18:39:05;18.80;99.90
54960;DHT22;40860;51.710;8.736;2023-07-29T18:43:08;18.70;99.90
54960;DHT22;40860;51.710;8.736;2023-07-29T18:47:13;18.70;99.90
54960;DHT22;40860;51.710;8.736;2023-07-29T18:51:16;18.70;99.90
54960;DHT22;40860;51.710;8.736;2023-07-29T18:55:19;18.70;99.90
54960;DHT22;40860;51.710;8.736;2023-07-29T18:59:24;18.60;99.90
54960;DHT22;40860;51.710;8.736;2023-07-29T19:03:28;18.60;99.90
54960;DHT22;40860;51.710;8.736;2023-07-29T19:07:31;18.50;99.90
54960;DHT22;40860;51.710;8.736;2023-07-29T19:11:37;18.50;99.90
54960;DHT22;40860;51.710;8.736;2023-07-29T19:15:40;18.50;99.90
54960;DHT22;40860;51.710;8.736;2023-07-29T19:19:44;18.40;99.90
54960;DHT22;40860;51.710;8.736;2023-07-29T19:23:49;18.40;99.90
54960;DHT22;40860;51.710;8.736;2023-07-29T19:27:52;18.30;99.90
54960;DHT22;40860;51.710;8.736;2023-07-29T19:31:56;18.30;99.90
54960;DHT22;40860;51.710;8.736;2023-07-29T19:36:00;18.20;99.90
54960;DHT22;40860;51.710;8.736;2023-07-29T19:40:07;18.20;99.90
54960;DHT22;40860;51.710;8.736;2023-07-29T19:44:10;18.20;99.90
54960;DHT22;40860;51.710;8.736;2023-07-29T19:48:23;18.20;99.90
54960;DHT22;40860;51.710;8.736;2023-07-29T19:52:28;18.10;99.90
54960;DHT22;40860;51.710;8.736;2023-07-29T19:56:31;18.20;99.90
54960;DHT22;40860;51.710;8.736;2023-07-29T20:00:34;18.20;99.90
54960;DHT22;40860;51.710;8.736;2023-07-29T20:04:37;18.20;99.90
54960;DHT22;40860;51.710;8.736;2023-07-29T20:08:41;18.20;99.90
54960;DHT22;40860;51.710;8.736;2023-07-29T20:12:44;18.20;99.90
54960;DHT22;40860;51.710;8.736;2023-07-29T20:16:48;18.20;99.90
54960;DHT22;40860;51.710;8.736;2023-07-29T20:20:51;18.20;99.90
54960;DHT22;40860;51.710;8.736;2023-07-29T20:24:55;18.20;99.90
54960;DHT22;40860;51.710;8.736;2023-07-29T20:28:58;18.20;99.90
54960;DHT22;40860;51.710;8.736;2023-07-29T20:33:01;18.20;99.90
54960;DHT22;40860;51.710;8.736;2023-07-29T20:37:05;18.30;99.90
54960;DHT22;40860;51.710;8.736;2023-07-29T20:41:09;18.30;99.90
54960;DHT22;40860;51.710;8.736;2023-07-29T20:45:12;18.20;99.90
54960;DHT22;40860;51.710;8.736;2023-07-29T20:49:15;18.30;99.90
54960;DHT22;40860;51.710;8.736;2023-07-29T20:53:19;18.30;99.90
54960;DHT22;40860;51.710;8.736;2023-07-29T20:57:23;18.40;99.90
54960;DHT22;40860;51.710;8.736;2023-07-29T21:01:26;18.50;99.90
54960;DHT22;40860;51.710;8.736;2023-07-29T21:05:33;18.50;99.90
54960;DHT22;40860;51.710;8.736;2023-07-29T21:09:36;18.50;99.90
54960;DHT22;40860;51.710;8.736;2023-07-29T21:13:40;18.50;99.90
54960;DHT22;40860;51.710;8.736;2023-07-29T21:17:43;18.50;99.90
54960;DHT22;40860;51.710;8.736;2023-07-29T21:21:46;18.50;99.90
54960;DHT22;40860;51.710;8.736;2023-07-29T21:25:51;18.50;99.90
54960;DHT22;40860;51.710;8.736;2023-07-29T21:29:56;18.50;99.90
54960;DHT22;40860;51.710;8.736;2023-07-29T21:33:59;18.50;99.90
54960;DHT22;40860;51.710;8.736;2023-07-29T21:38:02;18.50;99.90
54960;DHT22;40860;51.710;8.736;2023-07-29T21:42:25;18.50;99.90
54960;DHT22;40860;51.710;8.736;2023-07-29T21:46:30;18.50;99.90
54960;DHT22;40860;51.710;8.736;2023-07-29T21:50:33;18.50;99.90
54960;DHT22;40860;51.710;8.736;2023-07-29T21:54:36;18.40;99.90
54960;DHT22;40860;51.710;8.736;2023-07-29T21:58:39;18.40;99.90
54960;DHT22;40860;51.710;8.736;2023-07-29T22:02:44;18.40;99.90
54960;DHT22;40860;51.710;8.736;2023-07-29T22:06:47;18.30;99.90
54960;DHT22;40860;51.710;8.736;2023-07-29T22:10:50;18.30;99.90
54960;DHT22;40860;51.710;8.736;2023-07-29T22:14:53;18.20;99.90
54960;DHT22;40860;51.710;8.736;2023-07-29T22:18:57;18.20;99.90
54960;DHT22;40860;51.710;8.736;2023-07-29T22:23:00;18.10;99.90
54960;DHT22;40860;51.710;8.736;2023-07-29T22:27:04;18.10;99.90
54960;DHT22;40860;51.710;8.736;2023-07-29T22:31:08;18.10;99.90
54960;DHT22;40860;51.710;8.736;2023-07-29T22:35:12;18.10;99.90
54960;DHT22;40860;51.710;8.736;2023-07-29T22:39:15;18.10;99.90
54960;DHT22;40860;51.710;8.736;2023-07-29T22:43:19;18.10;99.90
54960;DHT22;40860;51.710;8.736;2023-07-29T22:47:22;18.20;99.90
54960;DHT22;40860;51.710;8.736;2023-07-29T22:51:26;18.20;99.90
54960;DHT22;40860;51.710;8.736;2023-07-29T22:55:30;18.30;99.90
54960;DHT22;40860;51.710;8.736;2023-07-29T22:59:33;18.30;99.90
54960;DHT22;40860;51.710;8.736;2023-07-29T23:03:36;18.40;99.90
54960;DHT22;40860;51.710;8.736;2023-07-29T23:07:40;18.40;99.90
54960;DHT22;40860;51.710;8.736;2023-07-29T23:11:43;18.40;99.90
54960;DHT22;40860;51.710;8.736;2023-07-29T23:15:46;18.40;99.90
54960;DHT22;40860;51.710;8.736;2023-07-29T23:19:49;18.30;99.90
54960;DHT22;40860;51.710;8.736;2023-07-29T23:23:54;18.20;99.90
54960;DHT22;40860;51.710;8.736;2023-07-29T23:27:57;18.00;99.90
54960;DHT22;40860;51.710;8.736;2023-07-29T23:32:00;17.90;99.90
54960;DHT22;40860;51.710;8.736;2023-07-29T23:36:04;17.80;99.90
54960;DHT22;40860;51.710;8.736;2023-07-29T23:40:09;17.70;99.90
54960;DHT22;40860;51.710;8.736;2023-07-29T23:44:12;17.70;99.90
54960;DHT22;40860;51.710;8.736;2023-07-29T23:48:15;17.60;99.90
54960;DHT22;40860;51.710;8.736;2023-07-29T23:52:18;17.60;99.90
54960;DHT22;40860;51.710;8.736;2023-07-29T23:56:22;17.60;99.90
